sensor_id;sensor_type;location;lat;lon;timestamp;P1;durP1;ratioP1;P2;durP2;ratioP2
45905;SDS011;31619;49.008;12.106;2022-11-21T00:00:51;3.83;;;3.53;;
45905;SDS011;31619;49.008;12.106;2022-11-21T00:03:18;2.83;;;2.63;;
45905;SDS011;31619;49.008;12.106;2022-11-21T00:05:45;2.40;;;2.30;;
45905;SDS011;31619;49.008;12.106;2022-11-21T00:08:13;3.60;;;3.30;;
45905;SDS011;31619;49.008;12.106;2022-11-21T00:10:40;2.20;;;2.10;;
45905;SDS011;31619;49.008;12.106;2022-11-21T00:13:06;2.90;;;2.72;;
45905;SDS011;31619;49.008;12.106;2022-11-21T00:15:36;1.73;;;1.73;;
45905;SDS011;31619;49.008;12.106;2022-11-21T00:18:02;3.25;;;3.05;;
45905;SDS011;31619;49.008;12.106;2022-11-21T00:20:28;2.47;;;2.28;;
45905;SDS011;31619;49.008;12.106;2022-11-21T00:22:54;2.78;;;2.58;;
45905;SDS011;31619;49.008;12.106;2022-11-21T00:25:19;1.95;;;1.85;;
45905;SDS011;31619;49.008;12.106;2022-11-21T00:27:45;2.80;;;2.60;;
45905;SDS011;31619;49.008;12.106;2022-11-21T00:30:11;2.70;;;2.50;;
45905;SDS011;31619;49.008;12.106;2022-11-21T00:32:36;3.28;;;3.08;;
45905;SDS011;31619;49.008;12.106;2022-11-21T00:35:03;2.20;;;2.10;;
45905;SDS011;31619;49.008;12.106;2022-11-21T00:37:30;2.40;;;2.20;;
45905;SDS011;31619;49.008;12.106;2022-11-21T00:39:57;2.45;;;2.35;;
45905;SDS011;31619;49.008;12.106;2022-11-21T00:42:22;1.38;;;1.38;;
45905;SDS011;31619;49.008;12.106;2022-11-21T00:44:48;1.88;;;1.77;;
45905;SDS011;31619;49.008;12.106;2022-11-21T00:47:14;2.10;;;1.90;;
45905;SDS011;31619;49.008;12.106;2022-11-21T00:49:39;2.60;;;2.40;;
45905;SDS011;31619;49.008;12.106;2022-11-21T00:52:05;2.53;;;2.30;;
45905;SDS011;31619;49.008;12.106;2022-11-21T00:54:30;2.70;;;2.50;;
45905;SDS011;31619;49.008;12.106;2022-11-21T00:56:56;2.33;;;2.22;;
45905;SDS011;31619;49.008;12.106;2022-11-21T00:59:21;1.67;;;1.58;;
45905;SDS011;31619;49.008;12.106;2022-11-21T01:01:47;1.70;;;1.60;;
45905;SDS011;31619;49.008;12.106;2022-11-21T01:04:12;2.58;;;2.45;;
45905;SDS011;31619;49.008;12.106;2022-11-21T01:06:38;3.88;;;2.80;;
45905;SDS011;31619;49.008;12.106;2022-11-21T01:09:04;1.98;;;1.88;;
45905;SDS011;31619;49.008;12.106;2022-11-21T01:11:30;1.50;;;1.50;;
45905;SDS011;31619;49.008;12.106;2022-11-21T01:13:56;1.88;;;1.77;;
45905;SDS011;31619;49.008;12.106;2022-11-21T01:16:23;2.33;;;2.22;;
45905;SDS011;31619;49.008;12.106;2022-11-21T01:18:50;1.95;;;1.83;;
45905;SDS011;31619;49.008;12.106;2022-11-21T01:21:20;2.00;;;1.90;;
45905;SDS011;31619;49.008;12.106;2022-11-21T01:23:48;1.77;;;1.73;;
45905;SDS011;31619;49.008;12.106;2022-11-21T01:26:17;2.00;;;1.90;;
45905;SDS011;31619;49.008;12.106;2022-11-21T01:28:45;2.28;;;2.10;;
45905;SDS011;31619;49.008;12.106;2022-11-21T01:31:13;3.17;;;2.10;;
45905;SDS011;31619;49.008;12.106;2022-11-21T01:33:59;2.30;;;2.20;;
45905;SDS011;31619;49.008;12.106;2022-11-21T01:38:56;2.50;;;2.40;;
45905;SDS011;31619;49.008;12.106;2022-11-21T01:41:30;2.47;;;2.28;;
45905;SDS011;31619;49.008;12.106;2022-11-21T01:44:02;1.80;;;1.70;;
45905;SDS011;31619;49.008;12.106;2022-11-21T01:46:54;1.92;;;1.83;;
45905;SDS011;31619;49.008;12.106;2022-11-21T01:49:27;2.22;;;1.90;;
45905;SDS011;31619;49.008;12.106;2022-11-21T01:54:36;1.25;;;1.23;;
45905;SDS011;31619;49.008;12.106;2022-11-21T01:57:11;1.70;;;1.60;;
45905;SDS011;31619;49.008;12.106;2022-11-21T01:59:47;2.03;;;1.92;;
45905;SDS011;31619;49.008;12.106;2022-11-21T02:02:26;2.20;;;2.10;;
45905;SDS011;31619;49.008;12.106;2022-11-21T02:04:55;2.25;;;2.05;;
45905;SDS011;31619;49.008;12.106;2022-11-21T02:07:24;2.22;;;2.13;;
45905;SDS011;31619;49.008;12.106;2022-11-21T02:09:54;1.83;;;1.75;;
45905;SDS011;31619;49.008;12.106;2022-11-21T02:15:17;2.80;;;1.80;;
45905;SDS011;31619;49.008;12.106;2022-11-21T02:17:44;2.10;;;2.00;;
45905;SDS011;31619;49.008;12.106;2022-11-21T02:20:10;1.77;;;1.77;;
45905;SDS011;31619;49.008;12.106;2022-11-21T02:25:11;1.98;;;1.85;;
45905;SDS011;31619;49.008;12.106;2022-11-21T02:27:44;3.33;;;1.98;;
45905;SDS011;31619;49.008;12.106;2022-11-21T02:30:10;2.17;;;1.95;;
45905;SDS011;31619;49.008;12.106;2022-11-21T02:32:38;1.85;;;1.60;;
45905;SDS011;31619;49.008;12.106;2022-11-21T02:35:06;2.00;;;1.90;;
45905;SDS011;31619;49.008;12.106;2022-11-21T02:37:32;2.22;;;2.13;;
45905;SDS011;31619;49.008;12.106;2022-11-21T02:40:01;1.92;;;1.83;;
45905;SDS011;31619;49.008;12.106;2022-11-21T02:42:32;1.85;;;1.85;;
45905;SDS011;31619;49.008;12.106;2022-11-21T02:45:17;1.92;;;1.83;;
45905;SDS011;31619;49.008;12.106;2022-11-21T02:47:46;2.17;;;2.08;;
45905;SDS011;31619;49.008;12.106;2022-11-21T02:50:18;2.17;;;1.83;;
45905;SDS011;31619;49.008;12.106;2022-11-21T02:52:48;1.63;;;1.60;;
45905;SDS011;31619;49.008;12.106;2022-11-21T02:55:13;2.17;;;2.00;;
45905;SDS011;31619;49.008;12.106;2022-11-21T02:57:40;2.50;;;1.98;;
45905;SDS011;31619;49.008;12.106;2022-11-21T03:00:06;7.47;;;2.05;;
45905;SDS011;31619;49.008;12.106;2022-11-21T03:02:33;2.35;;;2.15;;
45905;SDS011;31619;49.008;12.106;2022-11-21T03:04:59;2.10;;;2.00;;
45905;SDS011;31619;49.008;12.106;2022-11-21T03:07:26;1.35;;;1.35;;
45905;SDS011;31619;49.008;12.106;2022-11-21T03:09:51;2.05;;;1.95;;
45905;SDS011;31619;49.008;12.106;2022-11-21T03:12:17;2.20;;;2.10;;
45905;SDS011;31619;49.008;12.106;2022-11-21T03:14:43;1.70;;;1.60;;
45905;SDS011;31619;49.008;12.106;2022-11-21T03:17:08;1.75;;;1.55;;
45905;SDS011;31619;49.008;12.106;2022-11-21T03:19:34;2.05;;;1.95;;
45905;SDS011;31619;49.008;12.106;2022-11-21T03:22:00;2.40;;;2.20;;
45905;SDS011;31619;49.008;12.106;2022-11-21T03:24:26;1.77;;;1.60;;
45905;SDS011;31619;49.008;12.106;2022-11-21T03:26:52;2.20;;;2.00;;
45905;SDS011;31619;49.008;12.106;2022-11-21T03:29:17;2.33;;;2.10;;
45905;SDS011;31619;49.008;12.106;2022-11-21T03:31:43;1.88;;;1.77;;
45905;SDS011;31619;49.008;12.106;2022-11-21T03:34:08;1.92;;;1.83;;
45905;SDS011;31619;49.008;12.106;2022-11-21T03:36:34;1.73;;;1.67;;
45905;SDS011;31619;49.008;12.106;2022-11-21T03:39:00;1.80;;;1.70;;
45905;SDS011;31619;49.008;12.106;2022-11-21T03:41:25;1.60;;;1.60;;
45905;SDS011;31619;49.008;12.106;2022-11-21T03:44:01;1.77;;;1.73;;
45905;SDS011;31619;49.008;12.106;2022-11-21T03:46:29;1.55;;;1.55;;
45905;SDS011;31619;49.008;12.106;2022-11-21T03:48:55;1.60;;;1.50;;
45905;SDS011;31619;49.008;12.106;2022-11-21T03:51:21;2.05;;;1.63;;
45905;SDS011;31619;49.008;12.106;2022-11-21T03:53:47;5.03;;;1.42;;
45905;SDS011;31619;49.008;12.106;2022-11-21T03:56:13;1.42;;;1.40;;
45905;SDS011;31619;49.008;12.106;2022-11-21T03:58:39;1.65;;;0.90;;
45905;SDS011;31619;49.008;12.106;2022-11-21T04:01:04;1.23;;;1.23;;
45905;SDS011;31619;49.008;12.106;2022-11-21T04:03:30;1.70;;;1.52;;
45905;SDS011;31619;49.008;12.106;2022-11-21T04:05:56;1.50;;;1.50;;
45905;SDS011;31619;49.008;12.106;2022-11-21T04:08:22;1.48;;;1.48;;
45905;SDS011;31619;49.008;12.106;2022-11-21T04:10:48;0.55;;;0.55;;
45905;SDS011;31619;49.008;12.106;2022-11-21T04:13:15;1.15;;;1.13;;
45905;SDS011;31619;49.008;12.106;2022-11-21T04:15:41;1.65;;;1.55;;
45905;SDS011;31619;49.008;12.106;2022-11-21T04:18:07;4.53;;;3.28;;
45905;SDS011;31619;49.008;12.106;2022-11-21T04:20:33;4.97;;;4.57;;
45905;SDS011;31619;49.008;12.106;2022-11-21T04:22:58;6.30;;;4.53;;
45905;SDS011;31619;49.008;12.106;2022-11-21T04:25:24;2.65;;;2.45;;
45905;SDS011;31619;49.008;12.106;2022-11-21T04:27:49;2.42;;;2.22;;
45905;SDS011;31619;49.008;12.106;2022-11-21T04:30:15;1.77;;;1.67;;
45905;SDS011;31619;49.008;12.106;2022-11-21T04:32:41;1.60;;;1.50;;
45905;SDS011;31619;49.008;12.106;2022-11-21T04:35:08;1.15;;;1.15;;
45905;SDS011;31619;49.008;12.106;2022-11-21T04:37:33;1.50;;;1.50;;
45905;SDS011;31619;49.008;12.106;2022-11-21T04:39:59;1.35;;;1.35;;
45905;SDS011;31619;49.008;12.106;2022-11-21T04:42:25;4.20;;;1.92;;
45905;SDS011;31619;49.008;12.106;2022-11-21T04:44:50;1.60;;;1.60;;
45905;SDS011;31619;49.008;12.106;2022-11-21T04:47:16;1.20;;;1.20;;
45905;SDS011;31619;49.008;12.106;2022-11-21T04:49:42;1.77;;;1.75;;
45905;SDS011;31619;49.008;12.106;2022-11-21T04:52:07;1.30;;;1.30;;
45905;SDS011;31619;49.008;12.106;2022-11-21T04:54:33;3.13;;;1.50;;
45905;SDS011;31619;49.008;12.106;2022-11-21T04:56:58;2.00;;;1.90;;
45905;SDS011;31619;49.008;12.106;2022-11-21T04:59:24;1.90;;;1.80;;
45905;SDS011;31619;49.008;12.106;2022-11-21T05:01:49;1.60;;;1.48;;
45905;SDS011;31619;49.008;12.106;2022-11-21T05:04:15;2.85;;;1.77;;
45905;SDS011;31619;49.008;12.106;2022-11-21T05:06:40;1.58;;;1.25;;
45905;SDS011;31619;49.008;12.106;2022-11-21T05:09:06;1.25;;;0.95;;
45905;SDS011;31619;49.008;12.106;2022-11-21T05:11:32;1.80;;;1.70;;
45905;SDS011;31619;49.008;12.106;2022-11-21T05:14:16;1.60;;;1.50;;
45905;SDS011;31619;49.008;12.106;2022-11-21T05:16:41;1.45;;;1.35;;
45905;SDS011;31619;49.008;12.106;2022-11-21T05:19:08;1.23;;;1.20;;
45905;SDS011;31619;49.008;12.106;2022-11-21T05:21:33;1.45;;;1.42;;
45905;SDS011;31619;49.008;12.106;2022-11-21T05:23:59;2.40;;;1.27;;
45905;SDS011;31619;49.008;12.106;2022-11-21T05:26:25;0.95;;;0.95;;
45905;SDS011;31619;49.008;12.106;2022-11-21T05:28:51;1.20;;;1.20;;
45905;SDS011;31619;49.008;12.106;2022-11-21T05:31:16;0.95;;;0.95;;
45905;SDS011;31619;49.008;12.106;2022-11-21T05:33:42;1.38;;;1.27;;
45905;SDS011;31619;49.008;12.106;2022-11-21T05:36:07;1.77;;;1.67;;
45905;SDS011;31619;49.008;12.106;2022-11-21T05:38:33;2.35;;;1.80;;
45905;SDS011;31619;49.008;12.106;2022-11-21T05:40:58;1.00;;;1.00;;
45905;SDS011;31619;49.008;12.106;2022-11-21T05:43:24;2.05;;;1.88;;
45905;SDS011;31619;49.008;12.106;2022-11-21T05:46:08;1.30;;;1.30;;
45905;SDS011;31619;49.008;12.106;2022-11-21T05:48:34;1.60;;;1.50;;
45905;SDS011;31619;49.008;12.106;2022-11-21T05:51:01;1.35;;;1.25;;
45905;SDS011;31619;49.008;12.106;2022-11-21T05:53:27;1.05;;;1.02;;
45905;SDS011;31619;49.008;12.106;2022-11-21T05:55:52;1.00;;;1.00;;
45905;SDS011;31619;49.008;12.106;2022-11-21T05:58:18;1.25;;;1.20;;
45905;SDS011;31619;49.008;12.106;2022-11-21T06:00:44;1.05;;;1.05;;
45905;SDS011;31619;49.008;12.106;2022-11-21T06:03:10;0.80;;;0.80;;
45905;SDS011;31619;49.008;12.106;2022-11-21T06:06:13;1.13;;;1.13;;
45905;SDS011;31619;49.008;12.106;2022-11-21T06:08:42;1.08;;;1.08;;
45905;SDS011;31619;49.008;12.106;2022-11-21T06:11:10;0.90;;;0.90;;
45905;SDS011;31619;49.008;12.106;2022-11-21T06:13:38;0.65;;;0.65;;
45905;SDS011;31619;49.008;12.106;2022-11-21T06:16:13;0.85;;;0.85;;
45905;SDS011;31619;49.008;12.106;2022-11-21T06:18:41;0.63;;;0.63;;
45905;SDS011;31619;49.008;12.106;2022-11-21T06:21:09;1.00;;;1.00;;
45905;SDS011;31619;49.008;12.106;2022-11-21T06:23:38;1.00;;;1.00;;
45905;SDS011;31619;49.008;12.106;2022-11-21T06:26:04;0.85;;;0.85;;
45905;SDS011;31619;49.008;12.106;2022-11-21T06:28:32;1.00;;;1.00;;
45905;SDS011;31619;49.008;12.106;2022-11-21T06:31:10;0.52;;;0.52;;
45905;SDS011;31619;49.008;12.106;2022-11-21T06:33:37;0.68;;;0.68;;
45905;SDS011;31619;49.008;12.106;2022-11-21T06:36:04;1.17;;;0.88;;
45905;SDS011;31619;49.008;12.106;2022-11-21T06:38:32;1.40;;;1.23;;
45905;SDS011;31619;49.008;12.106;2022-11-21T06:40:58;2.10;;;1.23;;
45905;SDS011;31619;49.008;12.106;2022-11-21T06:43:31;0.90;;;0.90;;
45905;SDS011;31619;49.008;12.106;2022-11-21T06:45:56;2.05;;;1.10;;
45905;SDS011;31619;49.008;12.106;2022-11-21T06:48:22;1.08;;;1.08;;
45905;SDS011;31619;49.008;12.106;2022-11-21T06:50:48;0.80;;;0.80;;
45905;SDS011;31619;49.008;12.106;2022-11-21T06:53:14;1.08;;;1.08;;
45905;SDS011;31619;49.008;12.106;2022-11-21T06:55:40;1.75;;;1.08;;
45905;SDS011;31619;49.008;12.106;2022-11-21T06:58:05;2.15;;;1.10;;
45905;SDS011;31619;49.008;12.106;2022-11-21T07:00:31;1.85;;;1.50;;
45905;SDS011;31619;49.008;12.106;2022-11-21T07:03:00;1.30;;;1.30;;
45905;SDS011;31619;49.008;12.106;2022-11-21T07:05:27;1.38;;;1.30;;
45905;SDS011;31619;49.008;12.106;2022-11-21T07:08:00;1.00;;;1.00;;
45905;SDS011;31619;49.008;12.106;2022-11-21T07:10:26;1.23;;;0.95;;
45905;SDS011;31619;49.008;12.106;2022-11-21T07:12:56;1.75;;;1.65;;
45905;SDS011;31619;49.008;12.106;2022-11-21T07:15:41;1.05;;;1.05;;
45905;SDS011;31619;49.008;12.106;2022-11-21T07:18:08;1.13;;;0.90;;
45905;SDS011;31619;49.008;12.106;2022-11-21T07:20:33;1.23;;;1.20;;
45905;SDS011;31619;49.008;12.106;2022-11-21T07:22:59;1.50;;;1.40;;
45905;SDS011;31619;49.008;12.106;2022-11-21T07:25:25;2.55;;;1.13;;
45905;SDS011;31619;49.008;12.106;2022-11-21T07:27:50;1.10;;;1.10;;
45905;SDS011;31619;49.008;12.106;2022-11-21T07:30:16;1.20;;;1.13;;
45905;SDS011;31619;49.008;12.106;2022-11-21T07:32:42;1.02;;;1.02;;
45905;SDS011;31619;49.008;12.106;2022-11-21T07:35:08;0.82;;;0.82;;
45905;SDS011;31619;49.008;12.106;2022-11-21T07:37:40;1.10;;;1.10;;
45905;SDS011;31619;49.008;12.106;2022-11-21T07:40:05;1.30;;;1.20;;
45905;SDS011;31619;49.008;12.106;2022-11-21T07:42:32;0.90;;;0.90;;
45905;SDS011;31619;49.008;12.106;2022-11-21T07:44:57;0.80;;;0.80;;
45905;SDS011;31619;49.008;12.106;2022-11-21T07:47:23;1.13;;;1.13;;
45905;SDS011;31619;49.008;12.106;2022-11-21T07:49:49;1.13;;;1.02;;
45905;SDS011;31619;49.008;12.106;2022-11-21T07:52:14;1.10;;;1.10;;
45905;SDS011;31619;49.008;12.106;2022-11-21T07:54:40;0.85;;;0.85;;
45905;SDS011;31619;49.008;12.106;2022-11-21T07:57:06;1.50;;;1.08;;
45905;SDS011;31619;49.008;12.106;2022-11-21T07:59:32;1.92;;;1.33;;
45905;SDS011;31619;49.008;12.106;2022-11-21T08:01:57;1.30;;;1.20;;
45905;SDS011;31619;49.008;12.106;2022-11-21T08:04:23;1.08;;;1.00;;
45905;SDS011;31619;49.008;12.106;2022-11-21T08:06:49;0.85;;;0.80;;
45905;SDS011;31619;49.008;12.106;2022-11-21T08:09:14;1.42;;;1.33;;
45905;SDS011;31619;49.008;12.106;2022-11-21T08:11:40;0.60;;;0.60;;
45905;SDS011;31619;49.008;12.106;2022-11-21T08:14:05;0.90;;;0.90;;
45905;SDS011;31619;49.008;12.106;2022-11-21T08:16:31;1.75;;;1.20;;
45905;SDS011;31619;49.008;12.106;2022-11-21T08:18:57;1.23;;;1.02;;
45905;SDS011;31619;49.008;12.106;2022-11-21T08:21:23;0.98;;;0.98;;
45905;SDS011;31619;49.008;12.106;2022-11-21T08:23:49;0.95;;;0.95;;
45905;SDS011;31619;49.008;12.106;2022-11-21T08:26:15;1.15;;;1.00;;
45905;SDS011;31619;49.008;12.106;2022-11-21T08:28:41;1.42;;;1.33;;
45905;SDS011;31619;49.008;12.106;2022-11-21T08:31:07;1.08;;;1.08;;
45905;SDS011;31619;49.008;12.106;2022-11-21T08:33:32;1.65;;;1.00;;
45905;SDS011;31619;49.008;12.106;2022-11-21T08:36:02;1.65;;;1.35;;
45905;SDS011;31619;49.008;12.106;2022-11-21T08:38:30;0.93;;;0.93;;
45905;SDS011;31619;49.008;12.106;2022-11-21T08:40:57;1.13;;;1.02;;
45905;SDS011;31619;49.008;12.106;2022-11-21T08:43:41;1.10;;;1.10;;
45905;SDS011;31619;49.008;12.106;2022-11-21T08:46:07;0.93;;;0.93;;
45905;SDS011;31619;49.008;12.106;2022-11-21T08:48:32;0.85;;;0.85;;
45905;SDS011;31619;49.008;12.106;2022-11-21T08:50:58;1.90;;;1.80;;
45905;SDS011;31619;49.008;12.106;2022-11-21T08:53:24;1.13;;;1.10;;
45905;SDS011;31619;49.008;12.106;2022-11-21T08:55:49;1.50;;;1.17;;
45905;SDS011;31619;49.008;12.106;2022-11-21T08:58:15;0.88;;;0.88;;
45905;SDS011;31619;49.008;12.106;2022-11-21T09:00:41;1.77;;;1.50;;
45905;SDS011;31619;49.008;12.106;2022-11-21T09:03:06;2.08;;;1.20;;
45905;SDS011;31619;49.008;12.106;2022-11-21T09:05:32;1.88;;;1.10;;
45905;SDS011;31619;49.008;12.106;2022-11-21T09:07:58;1.75;;;0.85;;
45905;SDS011;31619;49.008;12.106;2022-11-21T09:10:24;0.60;;;0.60;;
45905;SDS011;31619;49.008;12.106;2022-11-21T09:12:51;1.23;;;0.90;;
45905;SDS011;31619;49.008;12.106;2022-11-21T09:15:16;1.05;;;1.02;;
45905;SDS011;31619;49.008;12.106;2022-11-21T09:18:01;0.60;;;0.60;;
45905;SDS011;31619;49.008;12.106;2022-11-21T09:20:28;0.40;;;0.40;;
45905;SDS011;31619;49.008;12.106;2022-11-21T09:23:02;0.52;;;0.30;;
45905;SDS011;31619;49.008;12.106;2022-11-21T09:25:32;0.68;;;0.68;;
45905;SDS011;31619;49.008;12.106;2022-11-21T09:27:59;0.73;;;0.73;;
45905;SDS011;31619;49.008;12.106;2022-11-21T09:30:25;1.08;;;0.85;;
45905;SDS011;31619;49.008;12.106;2022-11-21T09:32:51;0.50;;;0.50;;
45905;SDS011;31619;49.008;12.106;2022-11-21T09:35:17;0.60;;;0.60;;
45905;SDS011;31619;49.008;12.106;2022-11-21T09:37:42;0.63;;;0.50;;
45905;SDS011;31619;49.008;12.106;2022-11-21T09:40:14;0.80;;;0.70;;
45905;SDS011;31619;49.008;12.106;2022-11-21T09:48:08;1.58;;;0.80;;
45905;SDS011;31619;49.008;12.106;2022-11-21T09:50:38;1.25;;;0.73;;
45905;SDS011;31619;49.008;12.106;2022-11-21T09:53:12;0.63;;;0.63;;
45905;SDS011;31619;49.008;12.106;2022-11-21T09:55:43;0.90;;;0.90;;
45905;SDS011;31619;49.008;12.106;2022-11-21T09:58:13;0.68;;;0.68;;
45905;SDS011;31619;49.008;12.106;2022-11-21T10:00:39;0.50;;;0.50;;
45905;SDS011;31619;49.008;12.106;2022-11-21T10:03:05;0.63;;;0.63;;
45905;SDS011;31619;49.008;12.106;2022-11-21T10:05:40;0.30;;;0.30;;
45905;SDS011;31619;49.008;12.106;2022-11-21T10:17:11;0.75;;;0.63;;
45905;SDS011;31619;49.008;12.106;2022-11-21T10:20:02;1.35;;;1.30;;
45905;SDS011;31619;49.008;12.106;2022-11-21T10:22:54;0.52;;;0.52;;
45905;SDS011;31619;49.008;12.106;2022-11-21T10:25:31;1.02;;;0.70;;
45905;SDS011;31619;49.008;12.106;2022-11-21T10:30:52;0.90;;;0.73;;
45905;SDS011;31619;49.008;12.106;2022-11-21T10:33:22;1.85;;;1.00;;
45905;SDS011;31619;49.008;12.106;2022-11-21T10:35:54;0.63;;;0.63;;
45905;SDS011;31619;49.008;12.106;2022-11-21T10:38:25;0.70;;;0.70;;
45905;SDS011;31619;49.008;12.106;2022-11-21T10:43:40;1.02;;;0.95;;
45905;SDS011;31619;49.008;12.106;2022-11-21T10:46:26;1.20;;;1.15;;
45905;SDS011;31619;49.008;12.106;2022-11-21T10:48:58;1.02;;;0.77;;
45905;SDS011;31619;49.008;12.106;2022-11-21T10:51:44;0.68;;;0.68;;
45905;SDS011;31619;49.008;12.106;2022-11-21T10:54:13;1.13;;;1.00;;
45905;SDS011;31619;49.008;12.106;2022-11-21T10:57:01;0.80;;;0.80;;
45905;SDS011;31619;49.008;12.106;2022-11-21T10:59:36;2.13;;;0.98;;
45905;SDS011;31619;49.008;12.106;2022-11-21T11:02:19;1.90;;;1.05;;
45905;SDS011;31619;49.008;12.106;2022-11-21T11:04:47;2.53;;;1.02;;
45905;SDS011;31619;49.008;12.106;2022-11-21T11:09:45;1.17;;;1.17;;
45905;SDS011;31619;49.008;12.106;2022-11-21T11:12:27;0.60;;;0.60;;
45905;SDS011;31619;49.008;12.106;2022-11-21T11:15:16;1.00;;;1.00;;
45905;SDS011;31619;49.008;12.106;2022-11-21T11:17:57;1.17;;;1.02;;
45905;SDS011;31619;49.008;12.106;2022-11-21T11:21:14;4.57;;;1.08;;
45905;SDS011;31619;49.008;12.106;2022-11-21T11:25:49;1.27;;;1.13;;
45905;SDS011;31619;49.008;12.106;2022-11-21T11:28:25;2.67;;;1.20;;
45905;SDS011;31619;49.008;12.106;2022-11-21T11:30:57;1.33;;;1.23;;
45905;SDS011;31619;49.008;12.106;2022-11-21T11:33:36;2.47;;;0.88;;
45905;SDS011;31619;49.008;12.106;2022-11-21T11:36:14;2.03;;;1.10;;
45905;SDS011;31619;49.008;12.106;2022-11-21T11:38:59;1.00;;;1.00;;
45905;SDS011;31619;49.008;12.106;2022-11-21T11:47:57;1.25;;;0.95;;
45905;SDS011;31619;49.008;12.106;2022-11-21T11:50:45;1.83;;;1.40;;
45905;SDS011;31619;49.008;12.106;2022-11-21T11:53:24;2.25;;;1.20;;
45905;SDS011;31619;49.008;12.106;2022-11-21T11:59:00;1.55;;;1.02;;
45905;SDS011;31619;49.008;12.106;2022-11-21T12:04:42;2.55;;;1.20;;
45905;SDS011;31619;49.008;12.106;2022-11-21T12:07:19;1.05;;;1.00;;
45905;SDS011;31619;49.008;12.106;2022-11-21T12:12:14;2.33;;;1.35;;
45905;SDS011;31619;49.008;12.106;2022-11-21T12:17:44;2.38;;;1.88;;
45905;SDS011;31619;49.008;12.106;2022-11-21T12:20:19;2.28;;;1.48;;
45905;SDS011;31619;49.008;12.106;2022-11-21T12:22:48;2.58;;;1.55;;
45905;SDS011;31619;49.008;12.106;2022-11-21T12:25:17;2.13;;;1.33;;
45905;SDS011;31619;49.008;12.106;2022-11-21T12:27:45;1.50;;;1.40;;
45905;SDS011;31619;49.008;12.106;2022-11-21T12:30:23;0.90;;;0.90;;
45905;SDS011;31619;49.008;12.106;2022-11-21T12:38:21;0.98;;;0.90;;
45905;SDS011;31619;49.008;12.106;2022-11-21T12:49:49;0.88;;;0.85;;
45905;SDS011;31619;49.008;12.106;2022-11-21T12:52:49;1.20;;;1.10;;
45905;SDS011;31619;49.008;12.106;2022-11-21T12:55:41;1.38;;;1.10;;
45905;SDS011;31619;49.008;12.106;2022-11-21T12:58:26;1.08;;;0.77;;
45905;SDS011;31619;49.008;12.106;2022-11-21T13:06:24;1.70;;;0.70;;
45905;SDS011;31619;49.008;12.106;2022-11-21T13:08:52;1.35;;;0.90;;
45905;SDS011;31619;49.008;12.106;2022-11-21T13:11:24;1.88;;;0.93;;
45905;SDS011;31619;49.008;12.106;2022-11-21T13:25:01;1.50;;;1.40;;
45905;SDS011;31619;49.008;12.106;2022-11-21T13:32:44;1.80;;;0.80;;
45905;SDS011;31619;49.008;12.106;2022-11-21T13:35:55;1.10;;;1.00;;
45905;SDS011;31619;49.008;12.106;2022-11-21T13:38:16;2.22;;;1.10;;
45905;SDS011;31619;49.008;12.106;2022-11-21T13:40:41;1.17;;;1.05;;
45905;SDS011;31619;49.008;12.106;2022-11-21T13:43:27;1.38;;;0.65;;
45905;SDS011;31619;49.008;12.106;2022-11-21T13:45:53;2.63;;;1.10;;
45905;SDS011;31619;49.008;12.106;2022-11-21T13:48:29;1.50;;;0.88;;
45905;SDS011;31619;49.008;12.106;2022-11-21T14:05:17;0.90;;;0.77;;
45905;SDS011;31619;49.008;12.106;2022-11-21T14:07:49;1.10;;;0.50;;
45905;SDS011;31619;49.008;12.106;2022-11-21T14:12:49;1.70;;;1.30;;
45905;SDS011;31619;49.008;12.106;2022-11-21T14:17:59;3.00;;;1.45;;
45905;SDS011;31619;49.008;12.106;2022-11-21T14:20:27;3.03;;;1.42;;
45905;SDS011;31619;49.008;12.106;2022-11-21T14:23:11;2.45;;;1.50;;
45905;SDS011;31619;49.008;12.106;2022-11-21T14:25:47;1.85;;;1.42;;
45905;SDS011;31619;49.008;12.106;2022-11-21T14:28:28;3.25;;;1.70;;
45905;SDS011;31619;49.008;12.106;2022-11-21T14:30:58;1.50;;;1.40;;
45905;SDS011;31619;49.008;12.106;2022-11-21T14:35:55;2.55;;;1.70;;
45905;SDS011;31619;49.008;12.106;2022-11-21T14:43:42;3.20;;;1.70;;
45905;SDS011;31619;49.008;12.106;2022-11-21T14:46:14;2.50;;;1.80;;
45905;SDS011;31619;49.008;12.106;2022-11-21T14:48:43;2.15;;;1.75;;
45905;SDS011;31619;49.008;12.106;2022-11-21T14:51:09;2.25;;;1.52;;
45905;SDS011;31619;49.008;12.106;2022-11-21T14:53:40;3.58;;;1.60;;
45905;SDS011;31619;49.008;12.106;2022-11-21T14:56:11;2.92;;;1.77;;
45905;SDS011;31619;49.008;12.106;2022-11-21T14:58:57;1.70;;;1.55;;
45905;SDS011;31619;49.008;12.106;2022-11-21T15:01:34;1.48;;;1.48;;
45905;SDS011;31619;49.008;12.106;2022-11-21T15:04:01;3.08;;;1.90;;
45905;SDS011;31619;49.008;12.106;2022-11-21T15:06:29;1.67;;;1.50;;
45905;SDS011;31619;49.008;12.106;2022-11-21T15:09:03;3.17;;;1.60;;
45905;SDS011;31619;49.008;12.106;2022-11-21T15:11:33;2.42;;;1.90;;
45905;SDS011;31619;49.008;12.106;2022-11-21T15:14:10;2.38;;;1.70;;
45905;SDS011;31619;49.008;12.106;2022-11-21T15:17:05;1.75;;;1.50;;
45905;SDS011;31619;49.008;12.106;2022-11-21T15:19:36;2.83;;;1.80;;
45905;SDS011;31619;49.008;12.106;2022-11-21T15:22:02;4.75;;;3.35;;
45905;SDS011;31619;49.008;12.106;2022-11-21T15:24:30;5.53;;;2.38;;
45905;SDS011;31619;49.008;12.106;2022-11-21T15:35:38;2.25;;;2.05;;
45905;SDS011;31619;49.008;12.106;2022-11-21T15:46:21;4.13;;;3.10;;
45905;SDS011;31619;49.008;12.106;2022-11-21T15:49:01;4.55;;;2.85;;
45905;SDS011;31619;49.008;12.106;2022-11-21T15:51:40;7.75;;;3.75;;
45905;SDS011;31619;49.008;12.106;2022-11-21T15:54:11;7.68;;;3.40;;
45905;SDS011;31619;49.008;12.106;2022-11-21T15:56:39;5.47;;;3.00;;
45905;SDS011;31619;49.008;12.106;2022-11-21T15:59:05;4.32;;;3.30;;
45905;SDS011;31619;49.008;12.106;2022-11-21T16:01:31;4.13;;;3.35;;
45905;SDS011;31619;49.008;12.106;2022-11-21T16:03:58;3.15;;;2.85;;
45905;SDS011;31619;49.008;12.106;2022-11-21T16:06:25;6.30;;;3.63;;
45905;SDS011;31619;49.008;12.106;2022-11-21T16:08:52;4.43;;;3.20;;
45905;SDS011;31619;49.008;12.106;2022-11-21T16:13:52;4.78;;;3.58;;
45905;SDS011;31619;49.008;12.106;2022-11-21T16:16:28;3.72;;;3.10;;
45905;SDS011;31619;49.008;12.106;2022-11-21T16:18:56;6.38;;;3.75;;
45905;SDS011;31619;49.008;12.106;2022-11-21T16:21:22;4.18;;;3.78;;
45905;SDS011;31619;49.008;12.106;2022-11-21T16:23:48;6.65;;;5.18;;
45905;SDS011;31619;49.008;12.106;2022-11-21T16:26:15;8.25;;;5.25;;
45905;SDS011;31619;49.008;12.106;2022-11-21T16:28:40;6.13;;;4.63;;
45905;SDS011;31619;49.008;12.106;2022-11-21T16:31:06;5.80;;;5.00;;
45905;SDS011;31619;49.008;12.106;2022-11-21T16:33:43;5.30;;;4.50;;
45905;SDS011;31619;49.008;12.106;2022-11-21T16:36:09;5.07;;;4.57;;
45905;SDS011;31619;49.008;12.106;2022-11-21T16:38:34;6.97;;;4.60;;
45905;SDS011;31619;49.008;12.106;2022-11-21T16:41:01;11.75;;;4.68;;
45905;SDS011;31619;49.008;12.106;2022-11-21T16:43:30;6.00;;;4.57;;
45905;SDS011;31619;49.008;12.106;2022-11-21T16:46:04;4.78;;;4.38;;
45905;SDS011;31619;49.008;12.106;2022-11-21T16:48:31;4.40;;;3.83;;
45905;SDS011;31619;49.008;12.106;2022-11-21T16:53:37;8.07;;;4.40;;
45905;SDS011;31619;49.008;12.106;2022-11-21T16:56:07;10.13;;;6.10;;
45905;SDS011;31619;49.008;12.106;2022-11-21T16:58:34;5.78;;;5.18;;
45905;SDS011;31619;49.008;12.106;2022-11-21T17:01:09;6.78;;;5.43;;
45905;SDS011;31619;49.008;12.106;2022-11-21T17:03:40;7.60;;;6.13;;
45905;SDS011;31619;49.008;12.106;2022-11-21T17:06:07;8.85;;;6.45;;